sensor_id;sensor_type;location;lat;lon;timestamp;P1;durP1;ratioP1;P2;durP2;ratioP2
12267;SDS011;6196;48.398;11.736;2022-09-03T00:00:08;1.70;;;1.60;;
12267;SDS011;6196;48.398;11.736;2022-09-03T00:05:22;2.43;;;1.87;;
12267;SDS011;6196;48.398;11.736;2022-09-03T00:11:17;1.90;;;1.80;;
12267;SDS011;6196;48.398;11.736;2022-09-03T00:14:33;3.23;;;1.60;;
12267;SDS011;6196;48.398;11.736;2022-09-03T00:16:56;2.43;;;1.70;;
12267;SDS011;6196;48.398;11.736;2022-09-03T00:19:36;1.97;;;1.60;;
12267;SDS011;6196;48.398;11.736;2022-09-03T00:22:18;1.60;;;1.50;;
12267;SDS011;6196;48.398;11.736;2022-09-03T00:24:50;1.80;;;1.70;;
12267;SDS011;6196;48.398;11.736;2022-09-03T00:27:19;2.23;;;1.70;;
12267;SDS011;6196;48.398;11.736;2022-09-03T00:29:50;3.80;;;1.70;;
12267;SDS011;6196;48.398;11.736;2022-09-03T00:32:52;1.90;;;1.80;;
12267;SDS011;6196;48.398;11.736;2022-09-03T00:35:33;1.77;;;1.60;;
12267;SDS011;6196;48.398;11.736;2022-09-03T00:38:19;1.83;;;1.40;;
12267;SDS011;6196;48.398;11.736;2022-09-03T00:43:45;1.90;;;1.70;;
12267;SDS011;6196;48.398;11.736;2022-09-03T00:58:17;2.00;;;1.80;;
12267;SDS011;6196;48.398;11.736;2022-09-03T01:01:08;2.80;;;1.60;;
12267;SDS011;6196;48.398;11.736;2022-09-03T01:03:48;2.27;;;1.67;;
12267;SDS011;6196;48.398;11.736;2022-09-03T01:06:56;3.33;;;1.80;;
12267;SDS011;6196;48.398;11.736;2022-09-03T01:15:43;2.23;;;1.70;;
12267;SDS011;6196;48.398;11.736;2022-09-03T01:18:32;2.43;;;1.70;;
12267;SDS011;6196;48.398;11.736;2022-09-03T01:23:47;4.80;;;1.77;;
12267;SDS011;6196;48.398;11.736;2022-09-03T01:27:02;2.50;;;1.80;;
12267;SDS011;6196;48.398;11.736;2022-09-03T01:35:42;2.33;;;1.50;;
12267;SDS011;6196;48.398;11.736;2022-09-03T01:44:12;3.07;;;1.60;;
12267;SDS011;6196;48.398;11.736;2022-09-03T01:50:09;1.63;;;1.53;;
12267;SDS011;6196;48.398;11.736;2022-09-03T01:55:43;3.73;;;2.00;;
12267;SDS011;6196;48.398;11.736;2022-09-03T01:58:36;4.57;;;1.90;;
12267;SDS011;6196;48.398;11.736;2022-09-03T02:01:23;1.73;;;1.30;;
12267;SDS011;6196;48.398;11.736;2022-09-03T02:03:56;5.83;;;1.83;;
12267;SDS011;6196;48.398;11.736;2022-09-03T02:06:25;2.47;;;1.93;;
12267;SDS011;6196;48.398;11.736;2022-09-03T02:08:54;2.33;;;1.60;;
12267;SDS011;6196;48.398;11.736;2022-09-03T02:11:21;1.87;;;1.50;;
12267;SDS011;6196;48.398;11.736;2022-09-03T02:13:57;2.53;;;1.60;;
12267;SDS011;6196;48.398;11.736;2022-09-03T02:16:28;2.20;;;1.80;;
12267;SDS011;6196;48.398;11.736;2022-09-03T02:19:00;1.83;;;1.57;;
12267;SDS011;6196;48.398;11.736;2022-09-03T02:21:32;1.80;;;1.53;;
12267;SDS011;6196;48.398;11.736;2022-09-03T02:24:03;4.37;;;1.80;;
12267;SDS011;6196;48.398;11.736;2022-09-03T02:26:33;2.80;;;1.80;;
12267;SDS011;6196;48.398;11.736;2022-09-03T02:29:01;2.63;;;1.90;;
12267;SDS011;6196;48.398;11.736;2022-09-03T02:31:29;1.63;;;1.53;;
12267;SDS011;6196;48.398;11.736;2022-09-03T02:33:56;3.07;;;2.00;;
12267;SDS011;6196;48.398;11.736;2022-09-03T02:36:26;3.37;;;1.90;;
12267;SDS011;6196;48.398;11.736;2022-09-03T02:38:59;2.70;;;1.93;;
12267;SDS011;6196;48.398;11.736;2022-09-03T02:41:26;1.90;;;1.70;;
12267;SDS011;6196;48.398;11.736;2022-09-03T02:43:55;2.00;;;1.80;;
12267;SDS011;6196;48.398;11.736;2022-09-03T02:46:45;2.47;;;1.80;;
12267;SDS011;6196;48.398;11.736;2022-09-03T02:49:29;2.90;;;1.63;;
12267;SDS011;6196;48.398;11.736;2022-09-03T02:51:57;2.03;;;1.83;;
12267;SDS011;6196;48.398;11.736;2022-09-03T02:54:26;3.17;;;1.97;;
12267;SDS011;6196;48.398;11.736;2022-09-03T02:56:54;3.07;;;1.80;;
12267;SDS011;6196;48.398;11.736;2022-09-03T02:59:20;1.90;;;1.70;;
12267;SDS011;6196;48.398;11.736;2022-09-03T03:01:47;2.70;;;2.00;;
12267;SDS011;6196;48.398;11.736;2022-09-03T03:04:15;3.07;;;1.80;;
12267;SDS011;6196;48.398;11.736;2022-09-03T03:06:42;2.50;;;2.00;;
12267;SDS011;6196;48.398;11.736;2022-09-03T03:09:12;2.43;;;1.70;;
12267;SDS011;6196;48.398;11.736;2022-09-03T03:11:39;2.13;;;1.93;;
12267;SDS011;6196;48.398;11.736;2022-09-03T03:14:06;3.87;;;1.90;;
12267;SDS011;6196;48.398;11.736;2022-09-03T03:16:33;3.90;;;1.90;;
12267;SDS011;6196;48.398;11.736;2022-09-03T03:19:00;2.10;;;1.90;;
12267;SDS011;6196;48.398;11.736;2022-09-03T03:21:27;3.23;;;1.90;;
12267;SDS011;6196;48.398;11.736;2022-09-03T03:23:54;2.23;;;2.03;;
12267;SDS011;6196;48.398;11.736;2022-09-03T03:26:21;2.33;;;2.00;;
12267;SDS011;6196;48.398;11.736;2022-09-03T03:28:49;2.33;;;1.93;;
12267;SDS011;6196;48.398;11.736;2022-09-03T03:31:22;2.60;;;1.90;;
12267;SDS011;6196;48.398;11.736;2022-09-03T03:33:50;2.03;;;1.80;;
12267;SDS011;6196;48.398;11.736;2022-09-03T03:36:21;2.17;;;1.97;;
12267;SDS011;6196;48.398;11.736;2022-09-03T03:38:54;2.80;;;2.10;;
12267;SDS011;6196;48.398;11.736;2022-09-03T03:41:24;2.27;;;2.00;;
12267;SDS011;6196;48.398;11.736;2022-09-03T03:43:56;4.17;;;2.20;;
12267;SDS011;6196;48.398;11.736;2022-09-03T03:46:27;2.70;;;2.23;;
12267;SDS011;6196;48.398;11.736;2022-09-03T03:48:57;2.83;;;2.37;;
12267;SDS011;6196;48.398;11.736;2022-09-03T03:51:24;2.97;;;2.33;;
12267;SDS011;6196;48.398;11.736;2022-09-03T03:53:55;2.80;;;2.43;;
12267;SDS011;6196;48.398;11.736;2022-09-03T03:56:28;2.30;;;2.10;;
12267;SDS011;6196;48.398;11.736;2022-09-03T03:58:55;2.50;;;2.30;;
12267;SDS011;6196;48.398;11.736;2022-09-03T04:01:24;2.07;;;1.87;;
12267;SDS011;6196;48.398;11.736;2022-09-03T04:03:56;2.20;;;2.00;;
12267;SDS011;6196;48.398;11.736;2022-09-03T04:06:25;2.77;;;2.57;;
12267;SDS011;6196;48.398;11.736;2022-09-03T04:08:52;2.60;;;2.40;;
12267;SDS011;6196;48.398;11.736;2022-09-03T04:11:20;2.17;;;2.07;;
12267;SDS011;6196;48.398;11.736;2022-09-03T04:13:49;2.23;;;2.00;;
12267;SDS011;6196;48.398;11.736;2022-09-03T04:16:18;2.50;;;2.30;;
12267;SDS011;6196;48.398;11.736;2022-09-03T04:18:51;2.50;;;2.30;;
12267;SDS011;6196;48.398;11.736;2022-09-03T04:21:21;2.40;;;2.20;;
12267;SDS011;6196;48.398;11.736;2022-09-03T04:23:53;4.67;;;2.20;;
12267;SDS011;6196;48.398;11.736;2022-09-03T04:26:22;3.63;;;2.40;;
12267;SDS011;6196;48.398;11.736;2022-09-03T04:28:56;2.90;;;2.27;;
12267;SDS011;6196;48.398;11.736;2022-09-03T04:31:30;3.43;;;2.00;;
12267;SDS011;6196;48.398;11.736;2022-09-03T04:33:58;3.07;;;2.17;;
12267;SDS011;6196;48.398;11.736;2022-09-03T04:36:26;5.80;;;2.37;;
12267;SDS011;6196;48.398;11.736;2022-09-03T04:38:57;2.83;;;2.40;;
12267;SDS011;6196;48.398;11.736;2022-09-03T04:41:26;3.30;;;2.13;;
12267;SDS011;6196;48.398;11.736;2022-09-03T04:43:56;2.93;;;2.30;;
12267;SDS011;6196;48.398;11.736;2022-09-03T04:46:25;2.30;;;2.10;;
12267;SDS011;6196;48.398;11.736;2022-09-03T04:48:58;2.17;;;1.97;;
12267;SDS011;6196;48.398;11.736;2022-09-03T04:51:25;3.13;;;2.20;;
12267;SDS011;6196;48.398;11.736;2022-09-03T04:53:57;3.23;;;1.97;;
12267;SDS011;6196;48.398;11.736;2022-09-03T04:56:27;2.70;;;2.50;;
12267;SDS011;6196;48.398;11.736;2022-09-03T04:58:58;2.80;;;2.37;;
12267;SDS011;6196;48.398;11.736;2022-09-03T05:01:32;3.67;;;2.10;;
12267;SDS011;6196;48.398;11.736;2022-09-03T05:04:01;3.13;;;2.50;;
12267;SDS011;6196;48.398;11.736;2022-09-03T05:06:30;2.33;;;2.00;;
12267;SDS011;6196;48.398;11.736;2022-09-03T05:08:58;2.57;;;2.33;;
12267;SDS011;6196;48.398;11.736;2022-09-03T05:11:26;3.23;;;2.40;;
12267;SDS011;6196;48.398;11.736;2022-09-03T05:13:55;2.37;;;1.97;;
12267;SDS011;6196;48.398;11.736;2022-09-03T05:16:24;2.70;;;2.50;;
12267;SDS011;6196;48.398;11.736;2022-09-03T05:18:54;5.07;;;3.00;;
12267;SDS011;6196;48.398;11.736;2022-09-03T05:21:24;2.60;;;2.40;;
12267;SDS011;6196;48.398;11.736;2022-09-03T05:23:52;3.20;;;2.53;;
12267;SDS011;6196;48.398;11.736;2022-09-03T05:26:25;2.90;;;2.33;;
12267;SDS011;6196;48.398;11.736;2022-09-03T05:28:55;2.40;;;2.20;;
12267;SDS011;6196;48.398;11.736;2022-09-03T05:31:26;2.43;;;2.20;;
12267;SDS011;6196;48.398;11.736;2022-09-03T05:33:57;4.27;;;2.50;;
12267;SDS011;6196;48.398;11.736;2022-09-03T05:36:28;2.57;;;2.30;;
12267;SDS011;6196;48.398;11.736;2022-09-03T05:38:59;5.40;;;2.60;;
12267;SDS011;6196;48.398;11.736;2022-09-03T05:41:27;2.30;;;2.07;;
12267;SDS011;6196;48.398;11.736;2022-09-03T05:43:55;5.80;;;2.23;;
12267;SDS011;6196;48.398;11.736;2022-09-03T05:46:25;2.53;;;2.03;;
12267;SDS011;6196;48.398;11.736;2022-09-03T05:49:02;2.53;;;2.20;;
12267;SDS011;6196;48.398;11.736;2022-09-03T05:51:31;2.57;;;2.10;;
12267;SDS011;6196;48.398;11.736;2022-09-03T05:53:59;2.70;;;2.40;;
12267;SDS011;6196;48.398;11.736;2022-09-03T05:56:28;2.93;;;2.17;;
12267;SDS011;6196;48.398;11.736;2022-09-03T05:58:58;2.57;;;2.20;;
12267;SDS011;6196;48.398;11.736;2022-09-03T06:01:30;2.90;;;2.20;;
12267;SDS011;6196;48.398;11.736;2022-09-03T06:04:01;2.50;;;2.23;;
12267;SDS011;6196;48.398;11.736;2022-09-03T06:06:30;2.23;;;2.03;;
12267;SDS011;6196;48.398;11.736;2022-09-03T06:09:02;4.50;;;2.40;;
12267;SDS011;6196;48.398;11.736;2022-09-03T06:11:32;2.77;;;2.40;;
12267;SDS011;6196;48.398;11.736;2022-09-03T06:14:01;3.67;;;2.20;;
12267;SDS011;6196;48.398;11.736;2022-09-03T06:16:31;3.00;;;2.23;;
12267;SDS011;6196;48.398;11.736;2022-09-03T06:19:00;5.03;;;2.37;;
12267;SDS011;6196;48.398;11.736;2022-09-03T06:21:28;3.93;;;2.17;;
12267;SDS011;6196;48.398;11.736;2022-09-03T06:23:56;3.27;;;2.30;;
12267;SDS011;6196;48.398;11.736;2022-09-03T06:26:25;2.40;;;2.20;;
12267;SDS011;6196;48.398;11.736;2022-09-03T06:28:54;3.20;;;2.37;;
12267;SDS011;6196;48.398;11.736;2022-09-03T06:31:22;3.13;;;2.20;;
12267;SDS011;6196;48.398;11.736;2022-09-03T06:33:51;2.73;;;2.30;;
12267;SDS011;6196;48.398;11.736;2022-09-03T06:36:20;2.60;;;2.40;;
12267;SDS011;6196;48.398;11.736;2022-09-03T06:38:53;2.27;;;2.00;;
12267;SDS011;6196;48.398;11.736;2022-09-03T06:41:23;2.30;;;2.10;;
12267;SDS011;6196;48.398;11.736;2022-09-03T06:43:59;3.30;;;2.23;;
12267;SDS011;6196;48.398;11.736;2022-09-03T06:46:29;4.47;;;2.47;;
12267;SDS011;6196;48.398;11.736;2022-09-03T06:49:00;2.60;;;2.40;;
12267;SDS011;6196;48.398;11.736;2022-09-03T06:51:28;2.77;;;2.50;;
12267;SDS011;6196;48.398;11.736;2022-09-03T06:54:04;3.47;;;2.77;;
12267;SDS011;6196;48.398;11.736;2022-09-03T06:56:34;5.00;;;2.60;;
12267;SDS011;6196;48.398;11.736;2022-09-03T06:59:09;2.80;;;2.60;;
12267;SDS011;6196;48.398;11.736;2022-09-03T07:01:39;4.40;;;3.40;;
12267;SDS011;6196;48.398;11.736;2022-09-03T07:04:10;3.13;;;2.63;;
12267;SDS011;6196;48.398;11.736;2022-09-03T07:06:39;3.10;;;2.60;;
12267;SDS011;6196;48.398;11.736;2022-09-03T07:09:08;3.87;;;3.00;;
12267;SDS011;6196;48.398;11.736;2022-09-03T07:11:37;2.80;;;2.60;;
12267;SDS011;6196;48.398;11.736;2022-09-03T07:14:12;3.93;;;2.90;;
12267;SDS011;6196;48.398;11.736;2022-09-03T07:16:40;3.40;;;3.10;;
12267;SDS011;6196;48.398;11.736;2022-09-03T07:19:08;3.40;;;3.00;;
12267;SDS011;6196;48.398;11.736;2022-09-03T07:21:35;3.30;;;2.70;;
12267;SDS011;6196;48.398;11.736;2022-09-03T07:24:03;3.47;;;3.00;;
12267;SDS011;6196;48.398;11.736;2022-09-03T07:26:34;2.97;;;2.67;;
12267;SDS011;6196;48.398;11.736;2022-09-03T07:29:06;6.27;;;3.40;;
12267;SDS011;6196;48.398;11.736;2022-09-03T07:31:34;3.20;;;2.90;;
12267;SDS011;6196;48.398;11.736;2022-09-03T07:34:05;4.53;;;2.80;;
12267;SDS011;6196;48.398;11.736;2022-09-03T07:36:39;3.30;;;3.00;;
12267;SDS011;6196;48.398;11.736;2022-09-03T07:39:16;4.13;;;2.97;;
12267;SDS011;6196;48.398;11.736;2022-09-03T07:41:44;3.67;;;3.33;;
12267;SDS011;6196;48.398;11.736;2022-09-03T07:44:12;3.50;;;3.20;;
12267;SDS011;6196;48.398;11.736;2022-09-03T07:46:41;4.50;;;3.03;;
12267;SDS011;6196;48.398;11.736;2022-09-03T07:49:10;3.20;;;2.97;;
12267;SDS011;6196;48.398;11.736;2022-09-03T07:51:37;3.30;;;3.00;;
12267;SDS011;6196;48.398;11.736;2022-09-03T07:54:08;4.77;;;3.30;;
12267;SDS011;6196;48.398;11.736;2022-09-03T07:56:37;4.03;;;3.63;;
12267;SDS011;6196;48.398;11.736;2022-09-03T07:59:05;3.53;;;3.23;;
12267;SDS011;6196;48.398;11.736;2022-09-03T08:01:34;4.23;;;3.57;;
12267;SDS011;6196;48.398;11.736;2022-09-03T08:04:07;3.50;;;3.20;;
12267;SDS011;6196;48.398;11.736;2022-09-03T08:06:35;3.97;;;3.57;;
12267;SDS011;6196;48.398;11.736;2022-09-03T08:09:05;3.57;;;3.27;;
12267;SDS011;6196;48.398;11.736;2022-09-03T08:11:36;3.33;;;3.03;;
12267;SDS011;6196;48.398;11.736;2022-09-03T08:14:06;3.83;;;3.40;;
12267;SDS011;6196;48.398;11.736;2022-09-03T08:16:37;3.80;;;3.50;;
12267;SDS011;6196;48.398;11.736;2022-09-03T08:19:07;3.73;;;3.20;;
12267;SDS011;6196;48.398;11.736;2022-09-03T08:21:36;3.50;;;3.20;;
12267;SDS011;6196;48.398;11.736;2022-09-03T08:24:03;3.67;;;3.20;;
12267;SDS011;6196;48.398;11.736;2022-09-03T08:26:31;4.43;;;3.77;;
12267;SDS011;6196;48.398;11.736;2022-09-03T08:29:01;3.77;;;3.37;;
12267;SDS011;6196;48.398;11.736;2022-09-03T08:31:30;5.20;;;3.30;;
12267;SDS011;6196;48.398;11.736;2022-09-03T08:33:59;8.20;;;3.70;;
12267;SDS011;6196;48.398;11.736;2022-09-03T08:36:32;4.37;;;3.30;;
12267;SDS011;6196;48.398;11.736;2022-09-03T08:39:02;3.47;;;3.17;;
12267;SDS011;6196;48.398;11.736;2022-09-03T08:41:47;3.77;;;3.40;;
12267;SDS011;6196;48.398;11.736;2022-09-03T08:44:55;3.23;;;2.93;;
12267;SDS011;6196;48.398;11.736;2022-09-03T08:55:46;4.40;;;3.50;;
12267;SDS011;6196;48.398;11.736;2022-09-03T08:58:22;4.47;;;3.50;;
12267;SDS011;6196;48.398;11.736;2022-09-03T09:01:06;4.83;;;3.63;;
12267;SDS011;6196;48.398;11.736;2022-09-03T09:06:57;3.53;;;3.23;;
12267;SDS011;6196;48.398;11.736;2022-09-03T09:18:45;3.73;;;3.20;;
12267;SDS011;6196;48.398;11.736;2022-09-03T09:22:00;3.97;;;3.57;;
12267;SDS011;6196;48.398;11.736;2022-09-03T09:24:53;7.23;;;3.83;;
12267;SDS011;6196;48.398;11.736;2022-09-03T09:27:24;3.93;;;3.63;;
12267;SDS011;6196;48.398;11.736;2022-09-03T09:29:51;4.33;;;3.60;;
12267;SDS011;6196;48.398;11.736;2022-09-03T09:32:21;4.27;;;3.87;;
12267;SDS011;6196;48.398;11.736;2022-09-03T09:34:48;4.57;;;4.23;;
12267;SDS011;6196;48.398;11.736;2022-09-03T09:37:17;4.40;;;4.00;;
12267;SDS011;6196;48.398;11.736;2022-09-03T09:39:55;3.30;;;3.00;;
12267;SDS011;6196;48.398;11.736;2022-09-03T09:42:25;3.80;;;3.50;;
12267;SDS011;6196;48.398;11.736;2022-09-03T09:44:54;3.87;;;3.57;;
12267;SDS011;6196;48.398;11.736;2022-09-03T09:47:25;4.30;;;3.40;;
12267;SDS011;6196;48.398;11.736;2022-09-03T09:49:57;4.77;;;3.70;;
12267;SDS011;6196;48.398;11.736;2022-09-03T09:52:28;3.83;;;3.53;;
12267;SDS011;6196;48.398;11.736;2022-09-03T09:55:07;3.70;;;3.50;;
12267;SDS011;6196;48.398;11.736;2022-09-03T09:57:46;4.70;;;3.80;;
12267;SDS011;6196;48.398;11.736;2022-09-03T10:00:16;4.00;;;3.70;;
12267;SDS011;6196;48.398;11.736;2022-09-03T10:02:53;4.00;;;3.50;;
12267;SDS011;6196;48.398;11.736;2022-09-03T10:05:24;3.20;;;2.90;;
12267;SDS011;6196;48.398;11.736;2022-09-03T10:07:59;3.67;;;3.40;;
12267;SDS011;6196;48.398;11.736;2022-09-03T10:10:31;3.50;;;3.10;;
12267;SDS011;6196;48.398;11.736;2022-09-03T10:15:43;3.00;;;2.77;;
12267;SDS011;6196;48.398;11.736;2022-09-03T10:18:39;4.07;;;3.30;;
12267;SDS011;6196;48.398;11.736;2022-09-03T10:27:18;3.90;;;3.60;;
12267;SDS011;6196;48.398;11.736;2022-09-03T10:29:46;4.30;;;3.20;;
12267;SDS011;6196;48.398;11.736;2022-09-03T10:32:31;4.57;;;3.00;;
12267;SDS011;6196;48.398;11.736;2022-09-03T10:35:31;3.63;;;3.10;;
12267;SDS011;6196;48.398;11.736;2022-09-03T10:38:17;3.20;;;2.90;;
12267;SDS011;6196;48.398;11.736;2022-09-03T10:40:58;3.33;;;3.03;;
12267;SDS011;6196;48.398;11.736;2022-09-03T10:44:11;3.50;;;2.70;;
12267;SDS011;6196;48.398;11.736;2022-09-03T10:49:29;3.30;;;3.00;;
12267;SDS011;6196;48.398;11.736;2022-09-03T10:52:29;3.57;;;3.03;;
12267;SDS011;6196;48.398;11.736;2022-09-03T11:01:44;2.90;;;2.70;;
12267;SDS011;6196;48.398;11.736;2022-09-03T11:04:34;2.73;;;2.47;;
12267;SDS011;6196;48.398;11.736;2022-09-03T11:07:41;3.23;;;2.93;;
12267;SDS011;6196;48.398;11.736;2022-09-03T11:15:39;3.37;;;2.80;;
12267;SDS011;6196;48.398;11.736;2022-09-03T11:18:25;3.03;;;2.57;;
12267;SDS011;6196;48.398;11.736;2022-09-03T11:20:57;2.33;;;2.20;;
12267;SDS011;6196;48.398;11.736;2022-09-03T11:23:36;2.10;;;1.90;;
12267;SDS011;6196;48.398;11.736;2022-09-03T11:26:09;2.73;;;2.53;;
12267;SDS011;6196;48.398;11.736;2022-09-03T11:32:07;2.33;;;2.13;;
12267;SDS011;6196;48.398;11.736;2022-09-03T11:34:47;2.50;;;2.30;;
12267;SDS011;6196;48.398;11.736;2022-09-03T11:37:23;2.77;;;2.20;;
12267;SDS011;6196;48.398;11.736;2022-09-03T11:40:03;2.40;;;1.90;;
12267;SDS011;6196;48.398;11.736;2022-09-03T11:42:44;2.30;;;2.10;;
12267;SDS011;6196;48.398;11.736;2022-09-03T11:47:57;2.67;;;2.47;;
12267;SDS011;6196;48.398;11.736;2022-09-03T11:50:28;3.97;;;2.17;;
12267;SDS011;6196;48.398;11.736;2022-09-03T11:53:07;2.30;;;2.10;;
12267;SDS011;6196;48.398;11.736;2022-09-03T12:01:01;2.30;;;1.97;;
12267;SDS011;6196;48.398;11.736;2022-09-03T12:03:47;2.93;;;1.93;;
12267;SDS011;6196;48.398;11.736;2022-09-03T12:15:00;2.17;;;1.80;;
12267;SDS011;6196;48.398;11.736;2022-09-03T12:23:32;2.27;;;2.07;;
12267;SDS011;6196;48.398;11.736;2022-09-03T12:26:17;1.80;;;1.70;;
12267;SDS011;6196;48.398;11.736;2022-09-03T12:28:50;3.03;;;2.03;;
12267;SDS011;6196;48.398;11.736;2022-09-03T12:31:26;2.20;;;2.00;;
12267;SDS011;6196;48.398;11.736;2022-09-03T12:34:02;2.03;;;1.93;;
12267;SDS011;6196;48.398;11.736;2022-09-03T12:36:42;1.73;;;1.63;;
12267;SDS011;6196;48.398;11.736;2022-09-03T12:39:16;2.23;;;2.03;;
12267;SDS011;6196;48.398;11.736;2022-09-03T12:42:11;3.20;;;1.50;;
12267;SDS011;6196;48.398;11.736;2022-09-03T12:44:46;1.80;;;1.70;;
12267;SDS011;6196;48.398;11.736;2022-09-03T12:47:13;2.37;;;1.40;;
12267;SDS011;6196;48.398;11.736;2022-09-03T12:50:05;1.77;;;1.63;;
12267;SDS011;6196;48.398;11.736;2022-09-03T12:52:42;1.57;;;1.40;;
12267;SDS011;6196;48.398;11.736;2022-09-03T12:58:10;2.10;;;1.50;;
12267;SDS011;6196;48.398;11.736;2022-09-03T13:00:59;2.60;;;1.50;;
12267;SDS011;6196;48.398;11.736;2022-09-03T13:03:46;2.80;;;1.73;;
12267;SDS011;6196;48.398;11.736;2022-09-03T13:06:20;1.95;;;1.42;;
12267;SDS011;6196;48.398;11.736;2022-09-03T13:09:01;1.50;;;1.40;;
12267;SDS011;6196;48.398;11.736;2022-09-03T13:11:32;1.33;;;1.23;;
12267;SDS011;6196;48.398;11.736;2022-09-03T13:14:07;1.40;;;1.30;;
12267;SDS011;6196;48.398;11.736;2022-09-03T13:19:27;1.70;;;1.60;;
12267;SDS011;6196;48.398;11.736;2022-09-03T13:25:29;2.22;;;1.27;;
12267;SDS011;6196;48.398;11.736;2022-09-03T13:31:05;2.15;;;1.60;;
12267;SDS011;6196;48.398;11.736;2022-09-03T13:34:04;1.30;;;1.20;;
12267;SDS011;6196;48.398;11.736;2022-09-03T13:36:48;1.52;;;1.42;;
12267;SDS011;6196;48.398;11.736;2022-09-03T13:39:42;1.30;;;1.20;;
12267;SDS011;6196;48.398;11.736;2022-09-03T13:47:57;1.40;;;1.30;;
12267;SDS011;6196;48.398;11.736;2022-09-03T13:50:52;1.40;;;1.30;;
12267;SDS011;6196;48.398;11.736;2022-09-03T13:57:20;1.25;;;1.10;;
12267;SDS011;6196;48.398;11.736;2022-09-03T14:00:05;1.70;;;1.42;;
12267;SDS011;6196;48.398;11.736;2022-09-03T14:02:44;3.28;;;1.40;;
12267;SDS011;6196;48.398;11.736;2022-09-03T14:08:43;2.13;;;1.40;;
12267;SDS011;6196;48.398;11.736;2022-09-03T14:20:12;1.73;;;1.40;;
12267;SDS011;6196;48.398;11.736;2022-09-03T14:22:58;1.87;;;1.50;;
12267;SDS011;6196;48.398;11.736;2022-09-03T14:25:35;1.83;;;1.70;;
12267;SDS011;6196;48.398;11.736;2022-09-03T14:28:17;1.40;;;1.23;;
12267;SDS011;6196;48.398;11.736;2022-09-03T14:31:02;2.27;;;1.57;;
12267;SDS011;6196;48.398;11.736;2022-09-03T14:40:49;1.50;;;1.40;;
12267;SDS011;6196;48.398;11.736;2022-09-03T14:43:51;2.43;;;1.57;;
12267;SDS011;6196;48.398;11.736;2022-09-03T14:46:49;1.80;;;1.47;;
12267;SDS011;6196;48.398;11.736;2022-09-03T14:49:46;2.73;;;1.73;;
12267;SDS011;6196;48.398;11.736;2022-09-03T14:53:08;2.67;;;2.00;;
12267;SDS011;6196;48.398;11.736;2022-09-03T15:01:51;4.13;;;1.40;;
12267;SDS011;6196;48.398;11.736;2022-09-03T15:07:21;1.83;;;1.30;;
12267;SDS011;6196;48.398;11.736;2022-09-03T15:15:31;1.23;;;1.00;;
12267;SDS011;6196;48.398;11.736;2022-09-03T15:24:14;2.37;;;2.00;;
12267;SDS011;6196;48.398;11.736;2022-09-03T15:27:10;3.37;;;2.17;;
12267;SDS011;6196;48.398;11.736;2022-09-03T15:30:04;3.80;;;1.40;;
12267;SDS011;6196;48.398;11.736;2022-09-03T15:38:27;1.90;;;1.20;;
12267;SDS011;6196;48.398;11.736;2022-09-03T15:41:16;2.67;;;1.30;;
12267;SDS011;6196;48.398;11.736;2022-09-03T15:43:58;4.33;;;1.70;;
12267;SDS011;6196;48.398;11.736;2022-09-03T15:46:34;7.60;;;1.90;;
12267;SDS011;6196;48.398;11.736;2022-09-03T15:57:57;2.70;;;1.67;;
12267;SDS011;6196;48.398;11.736;2022-09-03T16:00:50;8.87;;;2.10;;
12267;SDS011;6196;48.398;11.736;2022-09-03T16:06:53;2.80;;;1.53;;
12267;SDS011;6196;48.398;11.736;2022-09-03T16:09:33;3.57;;;1.97;;
12267;SDS011;6196;48.398;11.736;2022-09-03T16:16:18;6.07;;;1.77;;
12267;SDS011;6196;48.398;11.736;2022-09-03T16:19:08;3.13;;;1.77;;
12267;SDS011;6196;48.398;11.736;2022-09-03T16:21:49;4.67;;;2.20;;
12267;SDS011;6196;48.398;11.736;2022-09-03T16:27:45;5.57;;;2.40;;
12267;SDS011;6196;48.398;11.736;2022-09-03T16:38:43;5.93;;;2.30;;
12267;SDS011;6196;48.398;11.736;2022-09-03T16:59:30;5.17;;;2.50;;
12267;SDS011;6196;48.398;11.736;2022-09-03T17:10:47;1.53;;;1.17;;
12267;SDS011;6196;48.398;11.736;2022-09-03T17:13:30;3.93;;;1.43;;
12267;SDS011;6196;48.398;11.736;2022-09-03T17:22:24;1.80;;;1.30;;
12267;SDS011;6196;48.398;11.736;2022-09-03T17:28:04;4.03;;;1.40;;
12267;SDS011;6196;48.398;11.736;2022-09-03T17:31:14;1.90;;;1.50;;
12267;SDS011;6196;48.398;11.736;2022-09-03T17:34:09;1.93;;;1.40;;
12267;SDS011;6196;48.398;11.736;2022-09-03T17:42:59;1.83;;;1.70;;
12267;SDS011;6196;48.398;11.736;2022-09-03T17:45:42;2.67;;;1.60;;
12267;SDS011;6196;48.398;11.736;2022-09-03T17:51:33;1.97;;;1.53;;
12267;SDS011;6196;48.398;11.736;2022-09-03T17:57:16;2.27;;;1.43;;
12267;SDS011;6196;48.398;11.736;2022-09-03T17:59:58;1.67;;;1.47;;
12267;SDS011;6196;48.398;11.736;2022-09-03T18:02:32;1.70;;;1.60;;
12267;SDS011;6196;48.398;11.736;2022-09-03T18:07:53;3.13;;;1.90;;
12267;SDS011;6196;48.398;11.736;2022-09-03T18:16:34;2.60;;;1.70;;
12267;SDS011;6196;48.398;11.736;2022-09-03T18:19:09;2.17;;;1.70;;
12267;SDS011;6196;48.398;11.736;2022-09-03T18:21:55;4.83;;;1.93;;
12267;SDS011;6196;48.398;11.736;2022-09-03T18:24:50;2.10;;;1.90;;
12267;SDS011;6196;48.398;11.736;2022-09-03T18:27:43;3.03;;;1.67;;
12267;SDS011;6196;48.398;11.736;2022-09-03T18:30:34;2.20;;;1.90;;
12267;SDS011;6196;48.398;11.736;2022-09-03T18:33:22;2.90;;;2.00;;
12267;SDS011;6196;48.398;11.736;2022-09-03T18:36:09;1.90;;;1.70;;
12267;SDS011;6196;48.398;11.736;2022-09-03T18:39:41;4.47;;;1.97;;
12267;SDS011;6196;48.398;11.736;2022-09-03T18:45:41;3.43;;;2.13;;
12267;SDS011;6196;48.398;11.736;2022-09-03T19:01:29;1.83;;;1.67;;
12267;SDS011;6196;48.398;11.736;2022-09-03T19:10:42;2.87;;;1.80;;
12267;SDS011;6196;48.398;11.736;2022-09-03T19:13:52;2.10;;;1.90;;
12267;SDS011;6196;48.398;11.736;2022-09-03T19:22:59;2.67;;;2.27;;
12267;SDS011;6196;48.398;11.736;2022-09-03T19:25:46;2.40;;;2.20;;
12267;SDS011;6196;48.398;11.736;2022-09-03T19:28:34;3.33;;;2.53;;
12267;SDS011;6196;48.398;11.736;2022-09-03T19:38:03;4.07;;;2.27;;
12267;SDS011;6196;48.398;11.736;2022-09-03T19:51:30;3.57;;;2.07;;
12267;SDS011;6196;48.398;11.736;2022-09-03T19:54:21;2.67;;;2.47;;
12267;SDS011;6196;48.398;11.736;2022-09-03T19:57:10;2.07;;;1.87;;
12267;SDS011;6196;48.398;11.736;2022-09-03T19:59:58;2.93;;;2.00;;
12267;SDS011;6196;48.398;11.736;2022-09-03T20:02:58;3.23;;;2.37;;
12267;SDS011;6196;48.398;11.736;2022-09-03T20:05:45;3.93;;;2.30;;
12267;SDS011;6196;48.398;11.736;2022-09-03T20:08:36;3.60;;;2.10;;
12267;SDS011;6196;48.398;11.736;2022-09-03T20:11:22;3.07;;;2.00;;
12267;SDS011;6196;48.398;11.736;2022-09-03T20:13:52;4.37;;;2.63;;
12267;SDS011;6196;48.398;11.736;2022-09-03T20:22:58;4.33;;;2.30;;
12267;SDS011;6196;48.398;11.736;2022-09-03T20:28:46;2.60;;;2.03;;
12267;SDS011;6196;48.398;11.736;2022-09-03T20:31:31;3.33;;;2.50;;
12267;SDS011;6196;48.398;11.736;2022-09-03T20:37:12;2.20;;;2.00;;
12267;SDS011;6196;48.398;11.736;2022-09-03T20:40:00;2.33;;;2.10;;
12267;SDS011;6196;48.398;11.736;2022-09-03T20:45:25;2.57;;;1.97;;
12267;SDS011;6196;48.398;11.736;2022-09-03T20:48:20;3.23;;;1.97;;
12267;SDS011;6196;48.398;11.736;2022-09-03T20:56:42;2.80;;;1.90;;
12267;SDS011;6196;48.398;11.736;2022-09-03T20:59:51;4.97;;;1.83;;
12267;SDS011;6196;48.398;11.736;2022-09-03T21:10:56;6.10;;;2.00;;
12267;SDS011;6196;48.398;11.736;2022-09-03T21:25:30;2.17;;;1.90;;
12267;SDS011;6196;48.398;11.736;2022-09-03T21:28:05;2.70;;;1.70;;
12267;SDS011;6196;48.398;11.736;2022-09-03T21:30:46;3.07;;;1.57;;
12267;SDS011;6196;48.398;11.736;2022-09-03T21:33:28;6.17;;;1.80;;
12267;SDS011;6196;48.398;11.736;2022-09-03T21:36:06;2.80;;;1.60;;
12267;SDS011;6196;48.398;11.736;2022-09-03T21:38:44;2.67;;;1.83;;
12267;SDS011;6196;48.398;11.736;2022-09-03T21:41:38;1.70;;;1.60;;
12267;SDS011;6196;48.398;11.736;2022-09-03T21:47:09;2.47;;;1.93;;